sensor_id;sensor_type;location;lat;lon;timestamp;temperature;humidity
74368;DHT22;64991;41.090;-8.118;2023-02-27T00:04:45;18.40;69.70
74368;DHT22;64991;41.090;-8.118;2023-02-27T00:09:50;18.40;69.90
74368;DHT22;64991;41.090;-8.118;2023-02-27T00:14:53;18.40;69.40
74368;DHT22;64991;41.090;-8.118;2023-02-27T00:19:57;18.40;69.20
74368;DHT22;64991;41.090;-8.118;2023-02-27T00:25:02;18.50;69.20
74368;DHT22;64991;41.090;-8.118;2023-02-27T00:30:06;18.50;69.20
74368;DHT22;64991;41.090;-8.118;2023-02-27T00:35:11;18.30;69.20
74368;DHT22;64991;41.090;-8.118;2023-02-27T00:40:16;18.30;69.00
74368;DHT22;64991;41.090;-8.118;2023-02-27T00:45:20;18.40;69.10
74368;DHT22;64991;41.090;-8.118;2023-02-27T00:50:23;18.30;69.30
74368;DHT22;64991;41.090;-8.118;2023-02-27T00:55:28;18.20;69.20
74368;DHT22;64991;41.090;-8.118;2023-02-27T01:00:32;18.30;69.00
74368;DHT22;64991;41.090;-8.118;2023-02-27T01:05:36;18.30;69.00
74368;DHT22;64991;41.090;-8.118;2023-02-27T01:10:40;18.20;69.20
74368;DHT22;64991;41.090;-8.118;2023-02-27T01:15:44;18.20;69.10
74368;DHT22;64991;41.090;-8.118;2023-02-27T01:20:50;18.30;69.10
74368;DHT22;64991;41.090;-8.118;2023-02-27T01:25:55;18.30;69.10
74368;DHT22;64991;41.090;-8.118;2023-02-27T01:30:59;18.20;69.20
74368;DHT22;64991;41.090;-8.118;2023-02-27T01:36:03;18.20;69.00
74368;DHT22;64991;41.090;-8.118;2023-02-27T01:41:08;18.20;68.90
74368;DHT22;64991;41.090;-8.118;2023-02-27T01:46:12;18.20;69.00
74368;DHT22;64991;41.090;-8.118;2023-02-27T01:51:17;18.30;68.60
74368;DHT22;64991;41.090;-8.118;2023-02-27T01:56:25;18.20;68.60
74368;DHT22;64991;41.090;-8.118;2023-02-27T02:01:30;18.10;69.20
74368;DHT22;64991;41.090;-8.118;2023-02-27T02:06:36;18.10;69.20
74368;DHT22;64991;41.090;-8.118;2023-02-27T02:11:43;18.10;69.10
74368;DHT22;64991;41.090;-8.118;2023-02-27T02:16:53;18.10;69.10
74368;DHT22;64991;41.090;-8.118;2023-02-27T02:22:23;18.00;69.00
74368;DHT22;64991;41.090;-8.118;2023-02-27T02:27:54;18.00;69.00
74368;DHT22;64991;41.090;-8.118;2023-02-27T02:33:19;18.10;68.60
74368;DHT22;64991;41.090;-8.118;2023-02-27T02:39:04;18.00;68.80
74368;DHT22;64991;41.090;-8.118;2023-02-27T02:44:16;18.00;68.60
74368;DHT22;64991;41.090;-8.118;2023-02-27T02:49:24;18.10;68.60
74368;DHT22;64991;41.090;-8.118;2023-02-27T02:54:35;18.00;68.20
74368;DHT22;64991;41.090;-8.118;2023-02-27T02:59:43;18.00;68.30
74368;DHT22;64991;41.090;-8.118;2023-02-27T03:04:50;18.00;68.20
74368;DHT22;64991;41.090;-8.118;2023-02-27T03:09:59;18.00;68.40
74368;DHT22;64991;41.090;-8.118;2023-02-27T03:15:07;18.00;68.20
74368;DHT22;64991;41.090;-8.118;2023-02-27T03:20:16;18.00;68.00
74368;DHT22;64991;41.090;-8.118;2023-02-27T03:25:24;17.90;68.00
74368;DHT22;64991;41.090;-8.118;2023-02-27T03:30:29;18.00;67.80
74368;DHT22;64991;41.090;-8.118;2023-02-27T03:35:39;17.90;67.80
74368;DHT22;64991;41.090;-8.118;2023-02-27T03:40:48;17.90;67.60
74368;DHT22;64991;41.090;-8.118;2023-02-27T03:45:57;17.90;67.70
74368;DHT22;64991;41.090;-8.118;2023-02-27T03:51:03;17.90;67.40
74368;DHT22;64991;41.090;-8.118;2023-02-27T03:56:08;17.80;67.70
74368;DHT22;64991;41.090;-8.118;2023-02-27T04:01:14;17.90;67.30
74368;DHT22;64991;41.090;-8.118;2023-02-27T04:06:18;17.80;67.30
74368;DHT22;64991;41.090;-8.118;2023-02-27T04:11:43;17.80;67.00
74368;DHT22;64991;41.090;-8.118;2023-02-27T04:16:59;17.80;66.90
74368;DHT22;64991;41.090;-8.118;2023-02-27T04:22:12;17.90;66.90
74368;DHT22;64991;41.090;-8.118;2023-02-27T04:27:26;17.80;66.70
74368;DHT22;64991;41.090;-8.118;2023-02-27T04:32:36;17.80;66.90
74368;DHT22;64991;41.090;-8.118;2023-02-27T04:37:42;17.80;66.40
74368;DHT22;64991;41.090;-8.118;2023-02-27T04:42:50;17.70;66.50
74368;DHT22;64991;41.090;-8.118;2023-02-27T04:47:56;17.70;66.60
74368;DHT22;64991;41.090;-8.118;2023-02-27T04:53:04;17.70;66.40
74368;DHT22;64991;41.090;-8.118;2023-02-27T04:58:13;17.70;66.10
74368;DHT22;64991;41.090;-8.118;2023-02-27T05:03:20;17.70;66.10
74368;DHT22;64991;41.090;-8.118;2023-02-27T05:08:28;17.70;66.10
74368;DHT22;64991;41.090;-8.118;2023-02-27T05:13:38;17.60;65.90
74368;DHT22;64991;41.090;-8.118;2023-02-27T05:18:44;17.70;66.00
74368;DHT22;64991;41.090;-8.118;2023-02-27T05:23:52;17.70;65.80
74368;DHT22;64991;41.090;-8.118;2023-02-27T05:29:02;17.70;65.60
74368;DHT22;64991;41.090;-8.118;2023-02-27T05:34:08;17.70;65.50
74368;DHT22;64991;41.090;-8.118;2023-02-27T05:39:14;17.60;65.40
74368;DHT22;64991;41.090;-8.118;2023-02-27T05:44:21;17.60;65.50
74368;DHT22;64991;41.090;-8.118;2023-02-27T05:49:30;17.60;65.30
74368;DHT22;64991;41.090;-8.118;2023-02-27T05:54:35;17.60;65.20
74368;DHT22;64991;41.090;-8.118;2023-02-27T05:59:43;17.60;64.90
74368;DHT22;64991;41.090;-8.118;2023-02-27T06:04:50;17.50;65.10
74368;DHT22;64991;41.090;-8.118;2023-02-27T06:09:53;17.60;64.90
74368;DHT22;64991;41.090;-8.118;2023-02-27T06:14:58;17.70;64.50
74368;DHT22;64991;41.090;-8.118;2023-02-27T06:20:02;17.50;64.70
74368;DHT22;64991;41.090;-8.118;2023-02-27T06:25:06;17.50;64.60
74368;DHT22;64991;41.090;-8.118;2023-02-27T06:30:12;17.50;64.50
74368;DHT22;64991;41.090;-8.118;2023-02-27T06:35:16;17.50;64.40
74368;DHT22;64991;41.090;-8.118;2023-02-27T06:40:19;17.50;64.10
74368;DHT22;64991;41.090;-8.118;2023-02-27T06:45:24;17.50;64.20
74368;DHT22;64991;41.090;-8.118;2023-02-27T06:50:28;17.50;64.10
74368;DHT22;64991;41.090;-8.118;2023-02-27T06:55:31;17.50;64.20
74368;DHT22;64991;41.090;-8.118;2023-02-27T07:00:37;17.50;63.90
74368;DHT22;64991;41.090;-8.118;2023-02-27T07:05:40;17.40;63.70
74368;DHT22;64991;41.090;-8.118;2023-02-27T07:10:44;17.40;63.90
74368;DHT22;64991;41.090;-8.118;2023-02-27T07:15:51;17.40;63.60
74368;DHT22;64991;41.090;-8.118;2023-02-27T07:20:54;17.50;63.50
74368;DHT22;64991;41.090;-8.118;2023-02-27T07:25:58;17.40;63.50
74368;DHT22;64991;41.090;-8.118;2023-02-27T07:31:03;17.40;63.50
74368;DHT22;64991;41.090;-8.118;2023-02-27T07:36:07;17.40;63.40
74368;DHT22;64991;41.090;-8.118;2023-02-27T07:41:10;17.30;63.40
74368;DHT22;64991;41.090;-8.118;2023-02-27T07:46:32;17.30;63.30
74368;DHT22;64991;41.090;-8.118;2023-02-27T07:51:35;17.30;63.20
74368;DHT22;64991;41.090;-8.118;2023-02-27T07:56:39;17.40;62.90
74368;DHT22;64991;41.090;-8.118;2023-02-27T08:01:44;17.30;62.80
74368;DHT22;64991;41.090;-8.118;2023-02-27T08:06:47;17.30;62.90
74368;DHT22;64991;41.090;-8.118;2023-02-27T08:11:50;17.30;62.70
74368;DHT22;64991;41.090;-8.118;2023-02-27T08:16:55;17.30;62.60
74368;DHT22;64991;41.090;-8.118;2023-02-27T08:22:00;17.40;62.60
74368;DHT22;64991;41.090;-8.118;2023-02-27T08:27:04;17.40;62.40
74368;DHT22;64991;41.090;-8.118;2023-02-27T08:32:09;17.30;62.60
74368;DHT22;64991;41.090;-8.118;2023-02-27T08:37:13;17.30;62.50
74368;DHT22;64991;41.090;-8.118;2023-02-27T08:42:16;17.30;62.40
74368;DHT22;64991;41.090;-8.118;2023-02-27T08:47:21;17.40;62.30
74368;DHT22;64991;41.090;-8.118;2023-02-27T08:52:25;17.30;62.50
74368;DHT22;64991;41.090;-8.118;2023-02-27T08:57:28;17.30;62.40
74368;DHT22;64991;41.090;-8.118;2023-02-27T09:02:33;17.40;62.50
74368;DHT22;64991;41.090;-8.118;2023-02-27T09:07:37;17.50;62.50
74368;DHT22;64991;41.090;-8.118;2023-02-27T09:12:43;17.60;62.20
74368;DHT22;64991;41.090;-8.118;2023-02-27T09:17:48;17.40;62.50
74368;DHT22;64991;41.090;-8.118;2023-02-27T09:22:51;17.50;62.40
74368;DHT22;64991;41.090;-8.118;2023-02-27T09:27:55;17.50;62.20
74368;DHT22;64991;41.090;-8.118;2023-02-27T09:33:00;17.50;62.30
74368;DHT22;64991;41.090;-8.118;2023-02-27T09:38:03;17.50;62.00
74368;DHT22;64991;41.090;-8.118;2023-02-27T09:43:08;17.50;62.30
74368;DHT22;64991;41.090;-8.118;2023-02-27T09:48:19;17.50;62.40
74368;DHT22;64991;41.090;-8.118;2023-02-27T09:53:31;17.50;62.60
74368;DHT22;64991;41.090;-8.118;2023-02-27T09:58:42;17.50;62.60
74368;DHT22;64991;41.090;-8.118;2023-02-27T10:03:57;17.50;62.30
74368;DHT22;64991;41.090;-8.118;2023-02-27T10:09:27;17.60;62.60
74368;DHT22;64991;41.090;-8.118;2023-02-27T10:14:36;17.60;62.60
74368;DHT22;64991;41.090;-8.118;2023-02-27T10:19:44;17.60;62.70
74368;DHT22;64991;41.090;-8.118;2023-02-27T10:24:50;17.60;62.40
74368;DHT22;64991;41.090;-8.118;2023-02-27T10:29:57;17.60;62.60
74368;DHT22;64991;41.090;-8.118;2023-02-27T10:35:31;17.60;62.20
74368;DHT22;64991;41.090;-8.118;2023-02-27T10:40:36;17.60;62.80
74368;DHT22;64991;41.090;-8.118;2023-02-27T10:45:41;17.70;62.50
74368;DHT22;64991;41.090;-8.118;2023-02-27T10:50:47;17.60;62.40
74368;DHT22;64991;41.090;-8.118;2023-02-27T10:55:59;17.60;62.50
74368;DHT22;64991;41.090;-8.118;2023-02-27T11:01:06;17.60;62.70
74368;DHT22;64991;41.090;-8.118;2023-02-27T11:06:13;17.60;62.60
74368;DHT22;64991;41.090;-8.118;2023-02-27T11:11:26;17.60;62.70
74368;DHT22;64991;41.090;-8.118;2023-02-27T11:16:30;17.60;62.90
74368;DHT22;64991;41.090;-8.118;2023-02-27T11:21:59;17.60;62.90
74368;DHT22;64991;41.090;-8.118;2023-02-27T11:27:15;17.60;63.30
74368;DHT22;64991;41.090;-8.118;2023-02-27T11:32:22;17.60;63.10
74368;DHT22;64991;41.090;-8.118;2023-02-27T11:37:28;17.60;62.60
74368;DHT22;64991;41.090;-8.118;2023-02-27T11:42:35;17.50;62.90
74368;DHT22;64991;41.090;-8.118;2023-02-27T11:47:39;17.60;62.70
74368;DHT22;64991;41.090;-8.118;2023-02-27T11:52:48;17.60;63.20
74368;DHT22;64991;41.090;-8.118;2023-02-27T11:57:54;17.60;63.10
74368;DHT22;64991;41.090;-8.118;2023-02-27T12:03:04;17.60;63.60
74368;DHT22;64991;41.090;-8.118;2023-02-27T12:08:15;17.60;63.10
74368;DHT22;64991;41.090;-8.118;2023-02-27T12:13:20;17.50;63.30
74368;DHT22;64991;41.090;-8.118;2023-02-27T12:18:27;17.50;63.50
74368;DHT22;64991;41.090;-8.118;2023-02-27T12:23:34;17.60;63.40
74368;DHT22;64991;41.090;-8.118;2023-02-27T12:28:44;17.60;63.90
74368;DHT22;64991;41.090;-8.118;2023-02-27T12:33:54;17.60;63.40
74368;DHT22;64991;41.090;-8.118;2023-02-27T12:39:02;17.60;63.70
74368;DHT22;64991;41.090;-8.118;2023-02-27T12:44:11;17.60;63.10
74368;DHT22;64991;41.090;-8.118;2023-02-27T12:49:25;17.50;63.70
74368;DHT22;64991;41.090;-8.118;2023-02-27T12:54:38;17.60;64.20
74368;DHT22;64991;41.090;-8.118;2023-02-27T12:59:51;17.50;63.80
74368;DHT22;64991;41.090;-8.118;2023-02-27T13:04:59;17.50;63.70
74368;DHT22;64991;41.090;-8.118;2023-02-27T13:10:09;17.50;63.90
74368;DHT22;64991;41.090;-8.118;2023-02-27T13:15:18;17.60;64.00
74368;DHT22;64991;41.090;-8.118;2023-02-27T13:20:28;17.50;64.30
74368;DHT22;64991;41.090;-8.118;2023-02-27T13:25:36;17.60;64.00
74368;DHT22;64991;41.090;-8.118;2023-02-27T13:30:41;17.60;64.30
74368;DHT22;64991;41.090;-8.118;2023-02-27T13:35:48;17.60;64.50
74368;DHT22;64991;41.090;-8.118;2023-02-27T13:40:58;17.50;64.30
74368;DHT22;64991;41.090;-8.118;2023-02-27T13:46:40;17.60;64.50
74368;DHT22;64991;41.090;-8.118;2023-02-27T13:51:44;17.60;64.80
74368;DHT22;64991;41.090;-8.118;2023-02-27T13:56:50;17.50;64.70
74368;DHT22;64991;41.090;-8.118;2023-02-27T14:02:23;17.50;64.70
74368;DHT22;64991;41.090;-8.118;2023-02-27T14:07:32;17.50;65.00
74368;DHT22;64991;41.090;-8.118;2023-02-27T14:12:50;17.50;64.60
74368;DHT22;64991;41.090;-8.118;2023-02-27T14:17:54;17.50;65.00
74368;DHT22;64991;41.090;-8.118;2023-02-27T14:23:17;17.40;65.20
74368;DHT22;64991;41.090;-8.118;2023-02-27T14:28:24;17.50;65.30
74368;DHT22;64991;41.090;-8.118;2023-02-27T14:33:32;17.40;65.20
74368;DHT22;64991;41.090;-8.118;2023-02-27T14:38:41;17.40;65.10
74368;DHT22;64991;41.090;-8.118;2023-02-27T14:43:47;17.50;64.90
74368;DHT22;64991;41.090;-8.118;2023-02-27T14:48:57;17.40;64.80
74368;DHT22;64991;41.090;-8.118;2023-02-27T14:54:03;17.50;64.80
74368;DHT22;64991;41.090;-8.118;2023-02-27T14:59:22;17.50;64.90
74368;DHT22;64991;41.090;-8.118;2023-02-27T15:04:28;17.50;64.90
74368;DHT22;64991;41.090;-8.118;2023-02-27T15:09:33;17.50;65.10
74368;DHT22;64991;41.090;-8.118;2023-02-27T15:14:40;17.50;64.60
74368;DHT22;64991;41.090;-8.118;2023-02-27T15:19:44;17.50;64.80
74368;DHT22;64991;41.090;-8.118;2023-02-27T15:24:49;17.40;64.90
74368;DHT22;64991;41.090;-8.118;2023-02-27T15:29:54;17.40;65.00
74368;DHT22;64991;41.090;-8.118;2023-02-27T15:34:59;17.40;65.00
74368;DHT22;64991;41.090;-8.118;2023-02-27T15:40:05;17.40;65.10
74368;DHT22;64991;41.090;-8.118;2023-02-27T15:45:19;17.40;64.90
74368;DHT22;64991;41.090;-8.118;2023-02-27T15:50:25;17.40;65.20
74368;DHT22;64991;41.090;-8.118;2023-02-27T15:55:31;17.30;65.00
74368;DHT22;64991;41.090;-8.118;2023-02-27T16:00:37;17.40;65.00
74368;DHT22;64991;41.090;-8.118;2023-02-27T16:05:41;17.40;65.20
74368;DHT22;64991;41.090;-8.118;2023-02-27T16:10:44;17.30;64.90
74368;DHT22;64991;41.090;-8.118;2023-02-27T16:15:59;17.30;65.20
74368;DHT22;64991;41.090;-8.118;2023-02-27T16:21:08;17.40;65.30
74368;DHT22;64991;41.090;-8.118;2023-02-27T16:26:17;17.30;65.20
74368;DHT22;64991;41.090;-8.118;2023-02-27T16:31:27;17.30;65.40
74368;DHT22;64991;41.090;-8.118;2023-02-27T16:36:31;17.40;65.20
74368;DHT22;64991;41.090;-8.118;2023-02-27T16:41:35;17.30;65.30
74368;DHT22;64991;41.090;-8.118;2023-02-27T16:46:40;17.40;65.30
74368;DHT22;64991;41.090;-8.118;2023-02-27T16:51:43;17.30;65.40
74368;DHT22;64991;41.090;-8.118;2023-02-27T16:56:47;17.30;65.10
74368;DHT22;64991;41.090;-8.118;2023-02-27T17:01:53;17.30;65.60
74368;DHT22;64991;41.090;-8.118;2023-02-27T17:06:57;17.30;65.40
74368;DHT22;64991;41.090;-8.118;2023-02-27T17:12:02;17.30;65.80
74368;DHT22;64991;41.090;-8.118;2023-02-27T17:17:07;17.20;65.40
74368;DHT22;64991;41.090;-8.118;2023-02-27T17:22:12;17.20;65.60
74368;DHT22;64991;41.090;-8.118;2023-02-27T17:27:15;17.30;65.60
74368;DHT22;64991;41.090;-8.118;2023-02-27T17:32:20;17.20;65.60
74368;DHT22;64991;41.090;-8.118;2023-02-27T17:37:24;17.20;65.60
74368;DHT22;64991;41.090;-8.118;2023-02-27T17:42:28;17.30;65.70
74368;DHT22;64991;41.090;-8.118;2023-02-27T17:47:33;17.30;65.30
74368;DHT22;64991;41.090;-8.118;2023-02-27T17:52:37;17.30;65.70
74368;DHT22;64991;41.090;-8.118;2023-02-27T17:57:41;17.20;65.80
74368;DHT22;64991;41.090;-8.118;2023-02-27T18:02:46;17.30;65.50
74368;DHT22;64991;41.090;-8.118;2023-02-27T18:07:49;17.20;65.80
74368;DHT22;64991;41.090;-8.118;2023-02-27T18:12:56;17.20;65.70
74368;DHT22;64991;41.090;-8.118;2023-02-27T18:18:00;17.20;65.80
74368;DHT22;64991;41.090;-8.118;2023-02-27T18:23:04;17.10;65.70
74368;DHT22;64991;41.090;-8.118;2023-02-27T18:28:08;17.20;65.90
74368;DHT22;64991;41.090;-8.118;2023-02-27T18:33:14;17.20;66.00
74368;DHT22;64991;41.090;-8.118;2023-02-27T18:38:17;17.20;65.90
74368;DHT22;64991;41.090;-8.118;2023-02-27T18:43:21;17.20;65.70
74368;DHT22;64991;41.090;-8.118;2023-02-27T18:48:26;17.20;65.70
74368;DHT22;64991;41.090;-8.118;2023-02-27T18:53:29;17.10;65.80
74368;DHT22;64991;41.090;-8.118;2023-02-27T18:58:33;17.10;65.90
74368;DHT22;64991;41.090;-8.118;2023-02-27T19:03:38;17.20;66.10
74368;DHT22;64991;41.090;-8.118;2023-02-27T19:08:42;17.20;65.90
74368;DHT22;64991;41.090;-8.118;2023-02-27T19:13:45;17.20;65.70
74368;DHT22;64991;41.090;-8.118;2023-02-27T19:18:50;17.10;65.90
74368;DHT22;64991;41.090;-8.118;2023-02-27T19:23:55;17.10;66.20
74368;DHT22;64991;41.090;-8.118;2023-02-27T19:28:59;17.20;66.00
74368;DHT22;64991;41.090;-8.118;2023-02-27T19:34:04;17.10;66.40
74368;DHT22;64991;41.090;-8.118;2023-02-27T19:39:08;17.10;66.20
74368;DHT22;64991;41.090;-8.118;2023-02-27T19:44:12;17.10;66.10
74368;DHT22;64991;41.090;-8.118;2023-02-27T19:49:17;17.10;66.20
74368;DHT22;64991;41.090;-8.118;2023-02-27T19:54:21;17.10;66.00
74368;DHT22;64991;41.090;-8.118;2023-02-27T19:59:24;17.10;66.30
74368;DHT22;64991;41.090;-8.118;2023-02-27T20:04:29;17.20;66.00
74368;DHT22;64991;41.090;-8.118;2023-02-27T20:09:33;17.10;66.10
74368;DHT22;64991;41.090;-8.118;2023-02-27T20:14:36;17.10;66.00
74368;DHT22;64991;41.090;-8.118;2023-02-27T20:19:42;17.20;65.90
74368;DHT22;64991;41.090;-8.118;2023-02-27T20:24:45;17.10;66.00
74368;DHT22;64991;41.090;-8.118;2023-02-27T20:29:50;17.20;66.10
74368;DHT22;64991;41.090;-8.118;2023-02-27T20:34:55;17.20;66.10
74368;DHT22;64991;41.090;-8.118;2023-02-27T20:39:59;17.10;66.20
74368;DHT22;64991;41.090;-8.118;2023-02-27T20:45:03;17.10;66.00
74368;DHT22;64991;41.090;-8.118;2023-02-27T20:50:09;17.10;66.00
74368;DHT22;64991;41.090;-8.118;2023-02-27T20:55:13;17.20;65.90
74368;DHT22;64991;41.090;-8.118;2023-02-27T21:00:17;17.10;66.00
74368;DHT22;64991;41.090;-8.118;2023-02-27T21:05:23;17.10;66.10
74368;DHT22;64991;41.090;-8.118;2023-02-27T21:10:26;17.10;66.10
74368;DHT22;64991;41.090;-8.118;2023-02-27T21:15:32;17.10;66.20
74368;DHT22;64991;41.090;-8.118;2023-02-27T21:20:39;17.10;66.10
74368;DHT22;64991;41.090;-8.118;2023-02-27T21:25:42;17.10;66.30
74368;DHT22;64991;41.090;-8.118;2023-02-27T21:30:46;17.10;65.90
74368;DHT22;64991;41.090;-8.118;2023-02-27T21:35:56;17.10;66.00
74368;DHT22;64991;41.090;-8.118;2023-02-27T21:41:03;17.10;66.10
74368;DHT22;64991;41.090;-8.118;2023-02-27T21:46:08;17.10;66.10
74368;DHT22;64991;41.090;-8.118;2023-02-27T21:51:14;17.00;66.20
74368;DHT22;64991;41.090;-8.118;2023-02-27T21:56:37;17.00;66.10
74368;DHT22;64991;41.090;-8.118;2023-02-27T22:01:41;17.10;66.10
74368;DHT22;64991;41.090;-8.118;2023-02-27T22:06:49;17.00;66.00
74368;DHT22;64991;41.090;-8.118;2023-02-27T22:11:54;17.00;66.00
74368;DHT22;64991;41.090;-8.118;2023-02-27T22:16:57;17.00;65.80
74368;DHT22;64991;41.090;-8.118;2023-02-27T22:22:02;17.00;65.90
74368;DHT22;64991;41.090;-8.118;2023-02-27T22:27:05;17.00;65.70
74368;DHT22;64991;41.090;-8.118;2023-02-27T22:32:10;16.90;66.10
74368;DHT22;64991;41.090;-8.118;2023-02-27T22:37:14;17.00;65.90
74368;DHT22;64991;41.090;-8.118;2023-02-27T22:42:20;17.00;65.70
74368;DHT22;64991;41.090;-8.118;2023-02-27T22:47:24;17.10;65.50
74368;DHT22;64991;41.090;-8.118;2023-02-27T22:52:29;16.90;65.90
74368;DHT22;64991;41.090;-8.118;2023-02-27T22:57:32;16.90;65.90
74368;DHT22;64991;41.090;-8.118;2023-02-27T23:02:38;16.90;65.70
74368;DHT22;64991;41.090;-8.118;2023-02-27T23:07:44;17.00;65.70
74368;DHT22;64991;41.090;-8.118;2023-02-27T23:12:47;16.80;65.80
74368;DHT22;64991;41.090;-8.118;2023-02-27T23:17:51;16.90;65.70
74368;DHT22;64991;41.090;-8.118;2023-02-27T23:23:00;16.90;65.80
74368;DHT22;64991;41.090;-8.118;2023-02-27T23:28:06;16.90;65.60
74368;DHT22;64991;41.090;-8.118;2023-02-27T23:33:09;16.90;65.60
74368;DHT22;64991;41.090;-8.118;2023-02-27T23:38:14;16.90;65.20
74368;DHT22;64991;41.090;-8.118;2023-02-27T23:43:17;16.80;65.50
74368;DHT22;64991;41.090;-8.118;2023-02-27T23:48:21;16.90;65.70
74368;DHT22;64991;41.090;-8.118;2023-02-27T23:53:26;16.80;65.50
74368;DHT22;64991;41.090;-8.118;2023-02-27T23:58:29;16.80;65.60
